x

Edisto - 41 Nm Southeast Of Charleston, Sc (41004) Wave Buoy

4:50am - Sun 5th Jul 2015 All times are EDT. -4 hours from GMT.

  • Sig Wave height 3.0ft
  • Swell Direction
  • Peak Period 9s
  • Average Period 5s
  • Wind
    18mph, 20mph gusts
  • Sea Temp 81°f
  • Air Temp 81°f
  • Sea Pressure 1018.7mb
  • Edisto - 41 Nm Southeast Of Charleston, Sc
  • Edisto - 41 Nm Southeast Of Charleston, Sc

More Historic Weather Station data

Upgrade to MSW Pro to gain access to the past 30 days of data for over 8000 Wavebouys and Weather Stations around the globe.

Join Pro

Comparision Forecast

View Surf forecast
   
Sun 07/05 4:50am 3ft 9s 5s 18 20 mph 1018.7mb 81f 81f
3:50am 3ft 9s 5s 16 18 mph 1018.6mb 81f 81f
2:50am 3ft 8s 5s 16 18 mph 1018.6mb 82f 81f
1:50am 3.5ft 8s 5s 13 16 mph 1018.9mb 82f 81f
12:50am 3ft 8s 4s 13 18 mph 1019.1mb 82f 81f
Sat 07/04 11:50pm 3.5ft 9s 5s 13 16 mph 1019mb 82f 81f
10:50pm 3.5ft 9s 4s 13 16 mph 1018.8mb 82f 81f
9:50pm 3.5ft 9s 4s 13 16 mph 1018.8mb 83f 79f
8:50pm 3ft 9s 5s 20 22 mph 1018.4mb 82f 82f
7:50pm 3.5ft 8s 4s 18 20 mph 1018mb 82f 82f
6:50pm 3.5ft 9s 5s 16 18 mph 1017.6mb 82f 82f
5:50pm 3.5ft 9s 5s 16 18 mph 1017.7mb 82f 82f
4:50pm 3.5ft 9s 5s 16 18 mph 1017.9mb 82f 82f
3:50pm 3.5ft 9s 5s 16 18 mph 1017.8mb 82f 82f
2:50pm 4ft 9s 5s 13 16 mph 1018.3mb 82f 81f
1:50pm 4ft 9s 5s 13 16 mph 1018.6mb 82f 81f
12:50pm 4ft 6s 5s 13 16 mph 1018.5mb 82f 81f
11:50am 4.5ft 6s 5s 13
mph
1018.5mb 82f 81f
10:50am 5ft 6s 5s 13 16 mph 1018.1mb 81f 81f
9:50am 4.5ft 6s 5s 18 20 mph 1017.9mb 81f 81f
8:50am 5ft 6s 5s 18 20 mph 1017.7mb 81f 81f
7:50am 5.5ft 6s 5s 18 22 mph 1017.3mb 81f 82f
6:50am 6ft 6s 5s 18 20 mph 1017.2mb 81f 82f
5:50am 5.5ft 6s 5s 22 27 mph 1016.5mb 82f 82f
4:50am 5.5ft 5s 5s 20 25 mph 1016.3mb 82f 82f
3:50am 5.5ft 6s 5s 22 27 mph 1016.2mb 82f 82f
2:50am 5ft 5s 5s 22 29 mph 1015.8mb 82f 83f
1:50am 5ft 5s 5s 22 25 mph 1015.7mb 82f 83f
12:50am 4.5ft 9s 4s 22 27 mph 1015.9mb 82f 83f
Fri 07/03 11:50pm 3.5ft 9s 4s 20 22 mph 1016.4mb 82f 83f
10:50pm 3ft 9s 4s 18 20 mph 1016.1mb 81f 83f
9:50pm 3ft 9s 4s 16 18 mph 1015.5mb 81f 82f
8:50pm 3.5ft 5s 4s 16 18 mph 1016mb 82f 81f
7:50pm 3.5ft 5s 4s 16 20 mph 1015.9mb 82f 82f
6:50pm 5ft 5s 5s 18 22 mph 1015.3mb 82f 81f
5:50pm 5ft 5s 5s 18 22 mph 1015.2mb 82f 80f
4:50pm 5ft 5s 4s 25 31 mph 1016.7mb 82f 76f
3:50pm 5ft 5s 5s 22 27 mph 1015.4mb 82f 81f
2:50pm 4.5ft 5s 5s 20 25 mph 1015.4mb 82f 81f
1:50pm 4.5ft 8s 5s 20 25 mph 1016mb 82f 81f
12:50pm 4ft 5s 4s 20 22 mph 1016.5mb 82f 81f
11:50am 4.5ft 5s 5s 18 22 mph 1016.5mb 81f 80f
10:50am 5ft 5s 5s 20 25 mph 1016.4mb 81f 81f
9:50am 5ft 6s 5s 20 25 mph 1016.5mb 81f 80f
8:50am 5ft 5s 5s 22 27 mph 1016.4mb 81f 80f
7:50am 5ft 6s 5s 22 25 mph 1015.8mb 81f 80f
6:50am 5ft 6s 5s 22 25 mph 1015.7mb 81f 80f
5:50am 5ft 6s 5s 22 25 mph 1015.3mb 81f 79f
4:50am 5ft 6s 5s 22 25 mph 1015.1mb 81f 79f
3:50am 5ft 6s 5s 22 25 mph 1014.7mb 81f 79f
2:50am 4.5ft 6s 5s 20 25 mph 1014.9mb 81f 79f
1:50am 4.5ft 6s 5s 18 20 mph 1014.6mb 81f 77f
12:50am 5ft 6s 5s 13 16 mph 1014.8mb 81f 76f
Thu 07/02 11:50pm 5ft 6s 5s 11 13 mph 1015mb 81f 77f
10:50pm 6ft 6s 5s 22 25 mph 1015.1mb 82f 75f
9:50pm 6.5ft 5s 5s 36 47 mph 1015.4mb 82f 75f
8:50pm 5ft 5s 4s 27 31 mph 1014.2mb 82f 83f
7:50pm 5ft 5s 4s 25 29 mph 1013.4mb 82f 83f
6:50pm 4.5ft 5s 4s 25 27 mph 1013.3mb 82f 82f
5:50pm 3.5ft 5s 4s 22 27 mph 1013.7mb 82f 82f
4:50pm 3.5ft 5s 4s 18 20 mph 1014.4mb 82f 82f
3:50pm 4ft 7s 5s 16 18 mph 1015.1mb 82f 82f
2:50pm 4ft 8s 5s 18 20 mph 1016.3mb 82f 82f
1:50pm 4ft 7s 5s 18 20 mph 1016.2mb 82f 82f
12:50pm 3.5ft 6s 5s 16 18 mph 1016.6mb 82f 81f
11:50am 4ft 9s 5s 16 18 mph 1016.5mb 82f 81f
10:50am 4ft 8s 5s 16 20 mph 1016.4mb 82f 81f
9:50am 4ft 6s 5s 16 18 mph 1016.2mb 82f 81f
8:50am 4ft 8s 5s 16 18 mph 1016.2mb 82f 81f
7:50am 4.5ft 6s 5s 18 20 mph 1015.9mb 82f 81f
6:50am 4ft 6s 5s 18 20 mph 1015mb 82f 81f
5:50am 4ft 6s 5s 16 18 mph 1014.6mb 82f 81f
4:50am 4ft 6s 5s 16 18 mph 1014.8mb 82f 82f
3:50am 4ft 6s 5s 16 18 mph 1015mb 82f 82f
2:50am 3.5ft 6s 5s 16 20 mph 1015.1mb 82f 82f
1:50am 4ft 8s 5s 13 16 mph 1015.7mb 82f 81f
12:50am 4ft 6s 4s 20 25 mph 1016.4mb 82f 77f
Wed 07/01 11:50pm 3.5ft 6s 5s 16 18 mph 1016.5mb 82f 82f
10:50pm 3.5ft 6s 5s 16 18 mph 1016.5mb 82f 83f
9:50pm 4ft 6s 5s 16 18 mph 1016mb 82f 82f
8:50pm 4.5ft 6s 5s 18 20 mph 1015.3mb 82f 82f
7:50pm 4.5ft 6s 5s 18 22 mph 1015.3mb 83f 82f
6:50pm 4.5ft 6s 5s 18 22 mph 1015mb 82f 82f
5:50pm 5ft 6s 5s 20 22 mph 1014.9mb 82f 81f
4:50pm 5ft 6s 5s 20 25 mph 1015.1mb 82f 80f
3:50pm 5ft 8s 5s 18 20 mph 1015.5mb 82f 80f
2:50pm 5.5ft 8s 5s 18 22 mph 1016.1mb 82f 79f
1:50pm 5.5ft 8s 5s 22 27 mph 1016.1mb 82f 79f
12:50pm 5ft 9s 5s 22 27 mph 1016.4mb 82f 79f
11:50am 5ft 9s 5s 20 22 mph 1016.5mb 82f 79f
10:50am 4.5ft 9s 5s 20 22 mph 1016.3mb 82f 79f